Time;durP1;ratioP1;P1;durP2;ratioP2;P2;SDS_P1;SDS_P2;PMS_P1;PMS_P2;Temp;Humidity;BMP_temperature;BMP_pressure;BME280_temperature;BME280_humidity;BME280_pressure;Samples;Min_cycle;Max_cycle;Signal;HPM_P1;HPM_P2
2023/10/13 00:02:01;;;;;;;20.27;6.80;;;17.70;99.90;;;;;;5071752;28;20502;-34
2023/10/13 00:04:27;;;;;;;23.20;6.93;;;17.70;99.90;;;;;;5070436;28;20115;-37
2023/10/13 00:06:53;;;;;;;16.92;6.95;;;17.70;99.90;;;;;;5054536;28;20027;-44
2023/10/13 00:09:25;;;;;;;13.95;7.80;;;17.70;99.90;;;;;;5072193;28;20028;-34
2023/10/13 00:11:56;;;;;;;12.85;6.50;;;17.70;99.90;;;;;;5072405;28;20043;-33
2023/10/13 00:14:22;;;;;;;15.73;6.13;;;17.70;99.90;;;;;;5068558;28;20526;-34
2023/10/13 00:19:52;;;;;;;18.58;6.68;;;17.70;99.90;;;;;;5013462;28;20061;-33
2023/10/13 00:22:22;;;;;;;14.68;6.97;;;17.70;99.90;;;;;;5059747;28;20389;-44
2023/10/13 00:24:51;;;;;;;9.93;6.45;;;17.70;99.90;;;;;;5054379;28;20021;-38
2023/10/13 00:27:29;;;;;;;15.52;7.20;;;17.70;99.90;;;;;;5072567;28;20056;-33
2023/10/13 00:32:57;;;;;;;13.30;5.95;;;17.70;99.90;;;;;;5027533;28;20025;-34
2023/10/13 00:35:25;;;;;;;15.60;7.00;;;17.70;99.90;;;;;;5071673;28;20043;-34
2023/10/13 00:37:53;;;;;;;13.10;7.30;;;17.70;99.90;;;;;;5070859;28;20389;-33
2023/10/13 00:45:57;;;;;;;15.85;7.30;;;17.60;99.90;;;;;;5066866;28;20124;-33
2023/10/13 00:48:34;;;;;;;15.18;7.28;;;17.60;99.90;;;;;;5052661;28;20362;-32
2023/10/13 00:51:07;;;;;;;17.15;8.05;;;17.60;99.90;;;;;;5052353;28;20494;-33
2023/10/13 00:53:44;;;;;;;15.75;6.63;;;17.60;99.90;;;;;;5055362;28;20528;-33
2023/10/13 00:56:19;;;;;;;19.15;8.05;;;17.60;99.90;;;;;;5071971;28;20043;-33
2023/10/13 00:58:46;;;;;;;15.98;7.07;;;17.60;99.90;;;;;;5059659;28;20082;-33
2023/10/13 01:01:21;;;;;;;14.10;4.63;;;17.60;99.90;;;;;;5054354;28;20059;-33
2023/10/13 01:03:59;;;;;;;13.15;7.00;;;17.60;99.90;;;;;;5072566;28;20087;-33
2023/10/13 01:06:26;;;;;;;;;;;17.60;99.90;;;;;;5057740;28;20037;-33
2023/10/13 01:09:00;;;;;;;15.85;6.78;;;17.70;99.90;;;;;;5074196;28;20391;-33
2023/10/13 01:11:30;;;;;;;11.50;6.80;;;17.60;99.90;;;;;;5056875;28;20527;-33
2023/10/13 01:13:56;;;;;;;11.38;7.22;;;17.70;99.90;;;;;;5066846;28;20444;-33
2023/10/13 01:16:26;;;;;;;11.63;7.57;;;17.70;99.90;;;;;;5047502;28;20119;-32
2023/10/13 01:18:52;;;;;;;15.45;6.80;;;17.70;99.90;;;;;;5075859;28;20032;-33
2023/10/13 01:21:26;;;;;;;14.55;6.93;;;17.60;99.90;;;;;;5068232;28;20032;-33
2023/10/13 01:23:52;;;;;;;13.13;7.47;;;17.60;99.90;;;;;;5075484;28;20056;-33
2023/10/13 01:26:24;;;;;;;20.98;7.28;;;17.60;99.90;;;;;;5075450;28;20083;-33
2023/10/13 01:28:57;;;;;;;17.13;6.50;;;17.60;99.90;;;;;;5072268;28;20039;-33
2023/10/13 01:31:30;;;;;;;9.27;6.47;;;17.60;99.90;;;;;;5075434;28;20112;-33
2023/10/13 01:33:59;;;;;;;12.90;6.40;;;17.60;99.90;;;;;;5075311;28;20052;-33
2023/10/13 01:36:28;;;;;;;16.05;6.70;;;17.60;99.90;;;;;;5074855;28;20048;-33
2023/10/13 01:38:54;;;;;;;9.50;6.25;;;17.60;99.90;;;;;;5073357;28;20028;-34
2023/10/13 01:41:23;;;;;;;11.88;7.18;;;17.60;99.90;;;;;;5074468;28;20035;-64
2023/10/13 01:43:48;;;;;;;15.68;6.53;;;17.70;99.90;;;;;;5074960;28;20029;-34
2023/10/13 01:46:15;;;;;;;14.80;6.78;;;17.70;99.90;;;;;;5074582;28;20031;-33
2023/10/13 01:48:43;;;;;;;10.55;4.55;;;17.60;99.90;;;;;;5075083;28;20472;-33
2023/10/13 01:51:09;;;;;;;;;;;17.70;99.90;;;;;;5074699;28;20040;-33
2023/10/13 01:53:39;;;;;;;11.87;5.57;;;17.70;99.90;;;;;;5055049;28;19909;-34
2023/10/13 01:56:10;;;;;;;13.63;5.85;;;17.70;99.90;;;;;;5075116;28;20492;-33
2023/10/13 01:58:42;;;;;;;14.38;4.95;;;17.70;99.90;;;;;;5074881;28;20033;-33
2023/10/13 02:01:10;;;;;;;8.20;5.80;;;17.70;99.90;;;;;;5072610;28;20107;-33
2023/10/13 02:03:41;;;;;;;;;;;17.70;99.90;;;;;;5075360;28;20469;-33
2023/10/13 02:06:10;;;;;;;17.13;4.70;;;17.70;99.90;;;;;;5066686;28;20465;-34
2023/10/13 02:08:40;;;;;;;7.80;4.88;;;17.60;99.90;;;;;;5074597;28;20108;-33
2023/10/13 02:11:07;;;;;;;9.35;4.38;;;17.60;99.90;;;;;;5074197;28;20024;-33
2023/10/13 02:13:32;;;;;;;7.78;4.93;;;17.60;99.90;;;;;;5073357;28;20070;-34
2023/10/13 02:16:03;;;;;;;9.50;4.85;;;17.60;99.90;;;;;;5073880;28;20445;-34
2023/10/13 02:18:41;;;;;;;12.07;4.95;;;17.60;99.90;;;;;;5074393;28;20384;-33
2023/10/13 02:21:16;;;;;;;9.63;4.85;;;17.60;99.90;;;;;;5074031;28;20024;-33
2023/10/13 02:23:46;;;;;;;7.32;4.70;;;17.60;99.90;;;;;;5073847;28;20032;-33
2023/10/13 02:26:16;;;;;;;9.43;4.75;;;17.60;99.90;;;;;;5074010;28;20177;-33
2023/10/13 02:28:43;;;;;;;7.65;4.90;;;17.60;99.90;;;;;;5074139;28;20474;-34
2023/10/13 02:31:11;;;;;;;8.00;4.80;;;17.50;99.90;;;;;;5070344;28;20028;-33
2023/10/13 02:33:44;;;;;;;9.18;4.82;;;17.60;99.90;;;;;;5073671;28;20032;-34
2023/10/13 02:36:12;;;;;;;11.18;5.28;;;17.50;99.90;;;;;;5073411;28;20094;-33
2023/10/13 02:41:27;;;;;;;11.60;5.40;;;17.50;99.90;;;;;;5071762;28;20032;-33
2023/10/13 02:43:54;;;;;;;12.43;4.47;;;17.50;99.90;;;;;;5074016;28;20070;-33
2023/10/13 02:46:29;;;;;;;9.73;5.30;;;17.50;99.90;;;;;;5055368;28;20027;-35
2023/10/13 02:48:57;;;;;;;11.98;5.35;;;17.50;99.90;;;;;;5054300;28;20216;-37
2023/10/13 02:51:31;;;;;;;16.70;6.00;;;17.60;99.90;;;;;;5066674;28;20047;-33
2023/10/13 02:54:02;;;;;;;14.48;5.50;;;17.50;99.90;;;;;;5073212;28;20028;-33
2023/10/13 02:56:29;;;;;;;9.05;5.68;;;17.50;99.90;;;;;;5072843;28;20043;-37
2023/10/13 02:59:04;;;;;;;12.77;4.45;;;17.50;99.90;;;;;;5073020;28;20052;-33
2023/10/13 03:01:33;;;;;;;13.55;5.32;;;17.50;99.90;;;;;;5073142;28;20020;-33
2023/10/13 03:04:00;;;;;;;10.88;5.22;;;17.50;99.90;;;;;;5073195;28;20112;-33
2023/10/13 03:06:33;;;;;;;11.93;5.87;;;17.50;99.90;;;;;;5072995;28;20029;-32
2023/10/13 03:09:24;;;;;;;15.38;5.38;;;17.50;99.90;;;;;;5072954;28;20039;-32
2023/10/13 03:11:51;;;;;;;9.00;4.72;;;17.50;99.90;;;;;;5072420;28;20066;-32
2023/10/13 03:14:25;;;;;;;10.98;4.57;;;17.50;99.90;;;;;;5073219;28;20481;-32
2023/10/13 03:16:55;;;;;;;14.50;5.38;;;17.50;99.90;;;;;;5073168;28;20477;-33
2023/10/13 03:19:21;;;;;;;15.63;4.95;;;17.50;99.90;;;;;;5072693;28;20444;-32
2023/10/13 03:21:57;;;;;;;12.25;5.30;;;17.50;99.90;;;;;;5072857;28;20020;-32
2023/10/13 03:24:33;;;;;;;9.40;4.80;;;17.50;99.90;;;;;;5073011;28;20461;-32
2023/10/13 03:27:09;;;;;;;7.32;4.68;;;17.40;99.90;;;;;;5072366;28;20017;-32
2023/10/13 03:29:37;;;;;;;9.55;5.07;;;17.40;99.90;;;;;;5073096;28;20112;-33
2023/10/13 03:32:07;;;;;;;14.65;5.03;;;17.40;99.90;;;;;;5054805;28;20017;-33
2023/10/13 03:34:34;;;;;;;10.40;4.70;;;17.40;99.90;;;;;;5072601;28;20493;-33
2023/10/13 03:37:10;;;;;;;18.70;5.35;;;17.30;99.90;;;;;;5072599;28;20498;-33
2023/10/13 03:39:36;;;;;;;8.52;4.82;;;17.30;99.90;;;;;;5072996;28;20131;-33
2023/10/13 03:42:05;;;;;;;10.73;4.78;;;17.20;99.90;;;;;;5072524;28;20495;-33
2023/10/13 03:44:31;;;;;;;8.45;5.20;;;17.20;99.90;;;;;;5072741;28;20020;-33
2023/10/13 03:46:57;;;;;;;12.23;5.15;;;17.20;99.90;;;;;;5072257;28;20099;-33
2023/10/13 03:49:25;;;;;;;10.05;5.43;;;17.20;99.90;;;;;;5072319;28;21545;-34
2023/10/13 03:51:54;;;;;;;;;;;17.20;99.90;;;;;;5072700;28;20097;-33
2023/10/13 03:54:20;;;;;;;7.18;4.28;;;17.20;99.90;;;;;;5072522;28;20334;-33
2023/10/13 03:56:45;;;;;;;7.25;5.05;;;17.10;99.90;;;;;;5067702;28;20016;-33
2023/10/13 04:01:46;;;;;;;8.68;4.07;;;17.10;99.90;;;;;;5071939;28;20039;-33
2023/10/13 04:04:14;;;;;;;6.10;3.78;;;17.10;99.90;;;;;;5054067;28;20016;-44
2023/10/13 04:06:51;;;;;;;6.25;4.22;;;17.10;99.90;;;;;;5072356;28;20024;-33
2023/10/13 04:15:14;;;;;;;5.50;4.05;;;16.90;99.90;;;;;;5072322;28;20123;-55
2023/10/13 04:17:23;;;;;;;8.68;4.65;;;16.90;99.90;;;;;;5071493;28;20036;-33
2023/10/13 04:28:37;;;;;;;18.55;4.45;;;16.90;99.90;;;;;;5069717;28;20040;-33
2023/10/13 04:31:13;;;;;;;10.25;4.70;;;16.90;99.90;;;;;;5071938;28;20098;-33
2023/10/13 04:33:52;;;;;;;9.07;4.82;;;16.90;99.90;;;;;;5053755;28;20033;-34
2023/10/13 04:39:00;;;;;;;13.63;4.72;;;16.90;99.90;;;;;;5065767;28;20063;-33
2023/10/13 04:41:42;;;;;;;11.52;4.28;;;17.00;99.90;;;;;;5075926;28;20070;-35
2023/10/13 04:49:49;;;;;;;6.72;4.63;;;17.00;99.90;;;;;;5076120;28;20067;-33
2023/10/13 04:55:16;;;;;;;8.95;3.55;;;17.00;99.90;;;;;;5075856;28;20040;-33
2023/10/13 04:57:50;;;;;;;4.20;3.33;;;17.00;99.90;;;;;;5074454;28;20107;-45
2023/10/13 05:05:46;;;;;;;5.55;4.43;;;17.10;99.90;;;;;;5075350;28;20036;-34
2023/10/13 05:47:01;;;;;;;7.03;3.47;;;17.40;99.90;;;;;;5072877;28;20043;-33
2023/10/13 05:49:49;;;;;;;5.65;3.35;;;17.30;99.90;;;;;;5073990;28;20032;-34
2023/10/13 06:31:06;;;;;;;9.80;4.15;;;17.30;99.90;;;;;;5073597;28;20031;-50
2023/10/13 06:33:33;;;;;;;9.88;3.45;;;17.30;99.90;;;;;;5057185;28;20028;-49
2023/10/13 06:35:59;;;;;;;;;;;17.30;99.90;;;;;;5073694;28;20477;-50
2023/10/13 06:38:30;;;;;;;7.47;3.40;;;17.40;99.90;;;;;;5073698;28;19957;-51
2023/10/13 06:40:57;;;;;;;6.00;3.50;;;17.40;99.90;;;;;;5073835;28;20024;-52
2023/10/13 06:43:23;;;;;;;12.55;4.00;;;17.40;99.90;;;;;;5072657;28;20032;-48
2023/10/13 06:46:01;;;;;;;9.52;3.65;;;17.50;99.90;;;;;;5073280;28;20021;-50
2023/10/13 06:48:33;;;;;;;17.88;4.07;;;17.50;99.90;;;;;;5054272;28;20493;-48
2023/10/13 06:51:04;;;;;;;10.70;3.85;;;17.60;99.90;;;;;;5073276;28;20024;-50
2023/10/13 06:53:36;;;;;;;5.55;3.75;;;17.60;99.90;;;;;;5072774;28;20025;-47
2023/10/13 06:56:03;;;;;;;11.13;4.78;;;17.60;99.90;;;;;;5072683;28;20031;-46
2023/10/13 06:58:29;;;;;;;15.63;4.78;;;17.70;99.90;;;;;;5056106;28;20132;-49
2023/10/13 07:00:55;;;;;;;6.32;4.38;;;17.80;99.90;;;;;;5073336;28;20074;-52
2023/10/13 07:03:22;;;;;;;17.30;5.50;;;17.80;99.90;;;;;;5073249;28;20025;-48
2023/10/13 07:05:48;;;;;;;10.07;5.32;;;17.90;99.90;;;;;;5073141;28;20016;-52
2023/10/13 07:08:17;;;;;;;8.35;5.13;;;17.80;99.90;;;;;;5072391;28;20029;-48
2023/10/13 07:11:05;;;;;;;11.85;7.15;;;17.90;99.90;;;;;;5072956;28;20024;-50
2023/10/13 07:13:31;;;;;;;10.60;6.30;;;17.90;99.90;;;;;;5070917;28;20529;-46
2023/10/13 07:16:05;;;;;;;18.15;7.10;;;18.00;99.90;;;;;;5072005;28;20020;-47
2023/10/13 07:18:36;;;;;;;10.43;5.70;;;18.00;99.90;;;;;;5072665;28;20031;-47
2023/10/13 07:21:09;;;;;;;16.42;5.90;;;18.00;99.90;;;;;;5073018;28;20432;-50
2023/10/13 07:23:38;;;;;;;15.25;5.85;;;18.00;99.90;;;;;;5072817;28;20119;-50
2023/10/13 07:26:08;;;;;;;17.52;6.53;;;18.10;99.90;;;;;;5054941;28;20492;-48
2023/10/13 07:28:43;;;;;;;16.30;6.53;;;18.10;99.90;;;;;;5072518;28;20056;-48
2023/10/13 07:31:13;;;;;;;8.40;5.68;;;18.20;99.90;;;;;;5071544;28;20392;-48
2023/10/13 07:33:40;;;;;;;14.80;6.65;;;18.20;99.90;;;;;;5054667;28;20066;-49
2023/10/13 07:36:15;;;;;;;12.07;5.03;;;18.20;99.90;;;;;;5054069;28;20402;-57
2023/10/13 07:38:48;;;;;;;12.95;5.05;;;18.20;99.90;;;;;;5072951;28;20064;-51
2023/10/13 07:41:15;;;;;;;11.20;4.85;;;18.20;99.90;;;;;;5072518;28;20039;-63
2023/10/13 07:43:42;;;;;;;;;;;18.20;99.90;;;;;;5073251;28;20385;-42
2023/10/13 07:46:10;;;;;;;8.70;4.53;;;18.20;99.90;;;;;;5072724;28;19919;-51
2023/10/13 07:48:37;;;;;;;14.27;4.88;;;18.30;99.90;;;;;;5071466;28;20107;-44
2023/10/13 07:51:11;;;;;;;15.63;4.85;;;18.30;99.90;;;;;;5072191;28;20066;-44
2023/10/13 07:53:40;;;;;;;13.05;4.00;;;18.30;99.90;;;;;;5071278;28;20032;-43
2023/10/13 07:56:11;;;;;;;12.73;4.88;;;18.30;99.90;;;;;;5071491;28;20473;-45
2023/10/13 07:58:47;;;;;;;17.45;4.80;;;18.40;99.90;;;;;;5072108;28;20536;-46
2023/10/13 08:01:17;;;;;;;14.40;5.13;;;18.40;99.90;;;;;;5071304;28;20507;-44
2023/10/13 08:03:44;;;;;;;15.48;4.80;;;18.50;99.90;;;;;;5071413;28;20027;-48
2023/10/13 08:08:40;;;;;;;12.70;4.07;;;18.40;99.90;;;;;;5069536;28;20040;-48
2023/10/13 08:11:34;;;;;;;12.20;4.53;;;18.50;99.90;;;;;;5051839;28;20024;-41
2023/10/13 08:14:11;;;;;;;11.35;4.13;;;18.50;99.90;;;;;;5071107;28;20062;-43
2023/10/13 08:16:45;;;;;;;11.82;3.75;;;18.50;99.90;;;;;;5071268;28;20115;-48
2023/10/13 08:19:18;;;;;;;13.20;5.13;;;18.60;99.90;;;;;;5069335;28;20020;-45
2023/10/13 08:40:43;;;;;;;15.35;4.82;;;18.80;99.90;;;;;;5071871;28;20024;-45
2023/10/13 08:43:13;;;;;;;11.32;3.95;;;18.90;99.90;;;;;;5072022;28;20067;-49
2023/10/13 08:48:12;;;;;;;11.05;4.90;;;18.90;99.90;;;;;;5072365;28;20036;-63
2023/10/13 08:59:05;;;;;;;12.55;4.38;;;18.90;99.90;;;;;;4970933;28;20079;-47
2023/10/13 09:01:48;;;;;;;8.18;3.90;;;19.00;99.90;;;;;;4971363;28;20027;-42
2023/10/13 09:04:32;;;;;;;8.23;4.00;;;19.00;99.90;;;;;;5029837;28;20035;-45
2023/10/13 09:15:17;;;;;;;12.45;3.25;;;19.00;99.90;;;;;;5063011;28;20075;-42
2023/10/13 09:20:32;;;;;;;19.33;4.57;;;19.00;99.90;;;;;;5072386;28;20037;-46
2023/10/13 09:25:34;;;;;;;14.07;4.25;;;19.10;99.90;;;;;;5075884;28;20044;-33
2023/10/13 09:28:09;;;;;;;20.42;4.05;;;19.10;99.90;;;;;;5074561;28;20037;-33
2023/10/13 09:30:42;;;;;;;11.90;4.32;;;19.10;99.90;;;;;;5058387;28;20358;-32
2023/10/13 09:33:08;;;;;;;18.60;3.95;;;19.10;99.90;;;;;;5075628;28;20550;-33
2023/10/13 09:35:36;;;;;;;7.60;3.53;;;19.10;99.90;;;;;;5074403;28;20028;-34
2023/10/13 09:38:03;;;;;;;11.52;4.53;;;19.20;99.90;;;;;;5073601;28;20041;-34
2023/10/13 09:43:05;;;;;;;12.38;4.40;;;19.20;99.90;;;;;;5075250;28;20036;-33
2023/10/13 09:45:43;;;;;;;18.40;4.22;;;19.30;99.90;;;;;;5075338;28;20028;-33
2023/10/13 09:48:21;;;;;;;8.52;4.10;;;19.30;99.90;;;;;;5071144;28;20507;-34
2023/10/13 09:50:48;;;;;;;14.30;4.25;;;19.30;99.90;;;;;;5074405;28;20020;-33
2023/10/13 09:53:18;;;;;;;14.77;4.85;;;19.40;99.90;;;;;;5074167;28;20024;-34
2023/10/13 09:55:50;;;;;;;10.18;4.00;;;19.40;99.90;;;;;;5074925;28;20090;-34
2023/10/13 09:58:17;;;;;;;11.77;3.95;;;19.40;99.90;;;;;;5074933;28;20024;-32
2023/10/13 10:01:10;;;;;;;;;;;19.50;99.90;;;;;;5075334;28;20538;-32
2023/10/13 10:03:51;;;;;;;13.48;4.00;;;19.50;99.90;;;;;;5074357;28;20423;-32
2023/10/13 10:06:39;;;;;;;11.52;3.40;;;19.50;99.90;;;;;;5074525;28;20024;-32
2023/10/13 10:09:12;;;;;;;15.55;3.70;;;19.50;99.90;;;;;;5074821;28;20100;-33
2023/10/13 10:11:54;;;;;;;10.73;4.38;;;19.60;99.90;;;;;;5073998;28;20066;-32
2023/10/13 10:14:28;;;;;;;11.52;4.25;;;19.60;99.90;;;;;;5056561;28;20094;-32
2023/10/13 10:17:10;;;;;;;15.95;4.32;;;19.60;99.90;;;;;;5073751;28;20032;-33
2023/10/13 10:19:54;;;;;;;13.68;3.33;;;19.70;99.90;;;;;;5073582;28;20032;-36
2023/10/13 10:22:33;;;;;;;17.17;4.40;;;19.80;99.90;;;;;;5072224;28;20024;-32
2023/10/13 10:25:25;;;;;;;11.57;3.65;;;19.90;99.90;;;;;;5074094;28;20020;-32
2023/10/13 10:28:05;;;;;;;9.80;3.33;;;20.10;99.90;;;;;;5073998;28;20035;-32
2023/10/13 10:30:38;;;;;;;14.10;3.70;;;20.20;99.90;;;;;;5056145;28;20071;-33
2023/10/13 10:33:18;;;;;;;10.40;3.40;;;20.40;99.90;;;;;;5073068;28;20066;-33
2023/10/13 10:35:46;;;;;;;10.98;3.72;;;20.40;99.90;;;;;;5073484;28;20028;-32
2023/10/13 10:40:58;;;;;;;13.57;4.50;;;20.50;99.90;;;;;;5072153;28;20021;-33
2023/10/13 10:43:42;;;;;;;8.55;3.78;;;20.50;99.90;;;;;;5070959;28;20090;-33
2023/10/13 10:46:18;;;;;;;21.20;3.70;;;20.50;99.90;;;;;;5072242;28;20024;-35
2023/10/13 10:48:45;;;;;;;8.95;4.10;;;20.60;99.90;;;;;;5069597;28;20021;-33
2023/10/13 10:54:10;;;;;;;15.57;3.85;;;20.70;99.90;;;;;;5073817;28;20089;-36
2023/10/13 10:56:36;;;;;;;19.25;3.97;;;20.70;99.90;;;;;;5059481;28;20097;-33
2023/10/13 10:59:04;;;;;;;12.32;4.10;;;20.70;99.90;;;;;;5073703;28;20013;-33
2023/10/13 11:01:38;;;;;;;7.82;3.63;;;20.70;99.90;;;;;;5072852;28;20020;-33
2023/10/13 11:04:14;;;;;;;9.45;3.53;;;20.80;99.90;;;;;;5073336;28;20028;-32
2023/10/13 11:06:54;;;;;;;6.47;3.20;;;20.80;99.90;;;;;;5073198;28;20123;-34
2023/10/13 11:11:54;;;;;;;10.18;4.22;;;20.70;99.90;;;;;;5072886;28;20032;-34
2023/10/13 11:14:28;;;;;;;6.13;3.63;;;20.70;99.90;;;;;;5072616;28;20020;-34
2023/10/13 11:17:00;;;;;;;14.52;4.40;;;20.70;99.90;;;;;;5068627;28;20024;-34
2023/10/13 11:19:36;;;;;;;11.68;3.80;;;20.80;99.90;;;;;;5073724;28;20024;-34
2023/10/13 11:22:29;;;;;;;19.08;3.58;;;20.80;99.90;;;;;;5054405;28;20027;-34
2023/10/13 11:24:59;;;;;;;14.27;3.72;;;20.80;99.90;;;;;;5072827;28;20028;-35
2023/10/13 11:30:19;;;;;;;7.43;3.55;;;20.90;99.90;;;;;;5073465;28;20032;-35
2023/10/13 11:32:46;;;;;;;14.50;3.97;;;20.90;99.90;;;;;;5072435;28;20035;-34
2023/10/13 11:35:22;;;;;;;15.45;3.65;;;21.00;99.90;;;;;;5069295;28;20501;-34
2023/10/13 11:38:25;;;;;;;11.07;3.88;;;21.00;99.90;;;;;;5072238;28;20591;-35
2023/10/13 11:40:59;;;;;;;20.30;3.92;;;21.10;99.90;;;;;;5068353;28;20056;-34
2023/10/13 11:43:26;;;;;;;11.50;4.35;;;21.10;99.90;;;;;;5067310;28;20095;-34
2023/10/13 11:46:13;;;;;;;12.73;3.40;;;21.10;99.90;;;;;;5071712;28;20107;-35
2023/10/13 11:48:43;;;;;;;8.90;4.03;;;21.10;99.90;;;;;;5073106;28;20393;-33
2023/10/13 11:51:17;;;;;;;15.88;3.67;;;21.00;99.90;;;;;;5072577;28;20426;-34
2023/10/13 11:53:45;;;;;;;5.55;3.30;;;21.00;99.90;;;;;;5071716;28;20024;-33
2023/10/13 11:56:11;;;;;;;18.08;3.80;;;21.00;99.90;;;;;;5072646;28;20473;-35
2023/10/13 11:58:40;;;;;;;14.60;3.83;;;21.00;99.90;;;;;;5072779;28;20021;-34
2023/10/13 12:06:35;;;;;;;13.43;4.15;;;21.10;99.90;;;;;;5071993;28;20044;-34
2023/10/13 12:11:48;;;;;;;17.15;5.00;;;21.00;99.90;;;;;;5065068;28;20039;-34
2023/10/13 12:14:36;;;;;;;20.25;4.25;;;21.00;99.90;;;;;;5071775;28;20017;-34
2023/10/13 12:17:10;;;;;;;16.77;3.88;;;21.00;99.90;;;;;;5056597;28;20052;-34
2023/10/13 12:19:38;;;;;;;12.90;4.15;;;21.00;99.90;;;;;;5072595;28;20035;-33
2023/10/13 12:22:08;;;;;;;11.60;4.10;;;21.10;99.90;;;;;;5071846;28;20024;-39
2023/10/13 12:27:18;;;;;;;24.95;5.95;;;21.10;99.90;;;;;;5071747;28;20074;-47
2023/10/13 12:29:56;;;;;;;21.98;4.88;;;21.20;99.90;;;;;;5065007;28;20021;-47
2023/10/13 12:32:30;;;;;;;;;;;21.20;99.90;;;;;;5071703;28;20025;-37
2023/10/13 12:51:33;;;;;;;;;;;;;;;;;;;;;
2023/10/13 12:53:50;;;;;;;18.23;4.05;;;21.10;99.90;;;;;;5071506;28;20120;-34
2023/10/13 12:56:17;;;;;;;10.52;4.20;;;21.10;99.90;;;;;;5072262;28;20028;-35
2023/10/13 12:58:51;;;;;;;21.65;4.30;;;21.10;99.90;;;;;;5075651;28;20027;-35
2023/10/13 13:01:20;;;;;;;16.85;4.20;;;21.10;99.90;;;;;;5056235;28;20020;-35
2023/10/13 13:03:46;;;;;;;19.67;5.45;;;21.10;99.90;;;;;;5065408;28;20061;-35
2023/10/13 13:06:25;;;;;;;11.07;5.10;;;21.10;99.90;;;;;;5068671;28;20024;-35
2023/10/13 13:08:53;;;;;;;17.48;4.47;;;21.00;99.90;;;;;;5068217;28;20516;-34
2023/10/13 13:11:20;;;;;;;16.77;3.97;;;20.90;99.90;;;;;;5056585;28;20045;-35
2023/10/13 13:13:46;;;;;;;19.33;4.18;;;20.80;99.90;;;;;;5075846;28;20522;-35
2023/10/13 13:16:18;;;;;;;9.77;4.32;;;20.80;99.90;;;;;;5075240;28;20111;-34
2023/10/13 13:18:47;;;;;;;10.60;4.55;;;20.80;99.90;;;;;;5075303;28;20106;-36
2023/10/13 13:21:19;;;;;;;12.90;5.45;;;20.80;99.90;;;;;;5073030;28;20553;-37
2023/10/13 13:23:45;;;;;;;9.43;4.07;;;20.80;99.90;;;;;;5074401;28;20016;-35
2023/10/13 13:26:17;;;;;;;15.02;4.75;;;20.80;99.90;;;;;;5074277;28;20028;-35
2023/10/13 13:28:50;;;;;;;20.05;4.88;;;20.80;99.90;;;;;;5075417;28;20480;-36
2023/10/13 13:31:16;;;;;;;24.48;5.05;;;20.70;99.90;;;;;;5074549;28;20103;-34
2023/10/13 13:33:44;;;;;;;11.63;4.22;;;20.70;99.90;;;;;;5075538;28;20025;-71
2023/10/13 13:36:15;;;;;;;9.25;4.88;;;20.70;99.90;;;;;;5074578;28;20031;-48
2023/10/13 13:38:49;;;;;;;20.60;4.50;;;20.60;99.90;;;;;;5075126;28;20031;-47
2023/10/13 13:41:16;;;;;;;14.68;4.20;;;20.60;99.90;;;;;;5074709;28;20028;-58
2023/10/13 13:46:16;;;;;;;17.02;4.82;;;20.50;99.90;;;;;;5074386;28;20041;-48
2023/10/13 13:48:42;;;;;;;11.87;3.97;;;20.40;99.90;;;;;;5073985;28;20453;-53
2023/10/13 13:51:26;;;;;;;10.15;4.88;;;20.30;99.90;;;;;;5073526;28;20063;-57
2023/10/13 13:53:52;;;;;;;10.15;4.65;;;20.30;99.90;;;;;;5073825;28;20029;-48
2023/10/13 13:56:19;;;;;;;7.63;4.28;;;20.30;99.90;;;;;;5074261;28;20032;-62
2023/10/13 13:58:51;;;;;;;14.68;5.47;;;20.20;99.90;;;;;;5074781;28;20064;-49
2023/10/13 14:01:25;;;;;;;14.48;5.15;;;20.20;99.90;;;;;;5073812;28;20021;-53
2023/10/13 14:03:52;;;;;;;12.27;4.70;;;20.10;99.90;;;;;;5073840;28;20108;-48
2023/10/13 14:06:26;;;;;;;21.63;4.63;;;20.10;99.90;;;;;;5073999;28;20021;-51
2023/10/13 14:09:32;;;;;;;19.80;4.78;;;19.90;99.90;;;;;;5073383;28;20074;-52
2023/10/13 14:14:58;;;;;;;18.02;4.35;;;19.60;99.90;;;;;;5073992;28;20094;-46
2023/10/13 14:17:29;;;;;;;19.05;5.35;;;19.50;99.90;;;;;;5073145;28;20048;-50
2023/10/13 14:22:42;;;;;;;21.65;5.95;;;19.20;99.90;;;;;;5073609;28;20031;-47
2023/10/13 14:25:14;;;;;;;27.63;4.72;;;19.10;99.90;;;;;;5074092;28;20493;-47
2023/10/13 14:27:42;;;;;;;8.85;4.68;;;19.00;99.90;;;;;;5071316;28;20025;-48
2023/10/13 14:30:09;;;;;;;17.73;5.88;;;18.90;99.90;;;;;;5074076;28;20021;-49
2023/10/13 14:32:40;;;;;;;8.50;3.53;;;18.90;99.90;;;;;;5073664;28;20020;-45
2023/10/13 14:35:14;;;;;;;12.00;3.92;;;18.80;99.90;;;;;;5073478;28;20554;-51
2023/10/13 14:37:40;;;;;;;4.78;2.65;;;18.80;99.90;;;;;;5074111;28;20074;-50
2023/10/13 14:40:12;;;;;;;2.40;2.20;;;18.80;99.90;;;;;;5073892;28;20019;-48
2023/10/13 14:42:40;;;;;;;8.60;3.05;;;18.70;99.90;;;;;;5072611;28;20477;-47
2023/10/13 14:45:12;;;;;;;11.82;2.85;;;18.70;99.90;;;;;;5072314;28;20021;-68
2023/10/13 14:47:41;;;;;;;5.18;3.03;;;18.70;99.90;;;;;;5072691;28;20035;-43
2023/10/13 14:50:14;;;;;;;8.63;3.15;;;18.60;99.90;;;;;;5067990;28;20020;-41
2023/10/13 14:52:39;;;;;;;10.45;3.50;;;18.60;99.90;;;;;;5068457;28;20107;-45
2023/10/13 14:55:07;;;;;;;4.15;2.42;;;18.50;99.90;;;;;;5072062;28;20048;-47
2023/10/13 14:57:41;;;;;;;6.05;2.78;;;18.50;99.90;;;;;;5035256;28;20025;-43
2023/10/13 15:00:13;;;;;;;11.63;3.63;;;18.50;99.90;;;;;;5047608;28;20032;-39
2023/10/13 15:02:38;;;;;;;6.90;2.75;;;18.50;99.90;;;;;;5047095;28;20056;-45
2023/10/13 15:05:04;;;;;;;16.00;3.42;;;18.50;99.90;;;;;;5064139;28;20051;-46
2023/10/13 15:07:30;;;;;;;11.90;3.20;;;18.40;99.90;;;;;;5069104;28;20052;-43
2023/10/13 15:09:58;;;;;;;7.32;2.55;;;18.50;99.90;;;;;;5070232;28;20477;-46
2023/10/13 15:12:25;;;;;;;7.70;2.78;;;18.40;99.90;;;;;;5072712;28;20032;-46
2023/10/13 15:14:53;;;;;;;15.82;2.97;;;18.40;99.90;;;;;;5073152;28;20276;-50
2023/10/13 15:17:18;;;;;;;11.32;3.95;;;18.40;99.90;;;;;;5073249;28;20017;-48
2023/10/13 15:19:44;;;;;;;14.85;3.53;;;18.40;99.90;;;;;;5072410;28;20044;-49
2023/10/13 15:22:16;;;;;;;6.78;3.13;;;18.40;99.90;;;;;;5072422;28;20031;-48
2023/10/13 15:24:57;;;;;;;7.80;2.85;;;18.30;99.90;;;;;;5072801;28;20039;-48
2023/10/13 15:27:23;;;;;;;9.38;3.45;;;18.30;99.90;;;;;;5037783;28;20180;-47
2023/10/13 15:29:50;;;;;;;13.13;3.65;;;18.40;99.90;;;;;;5055335;28;20021;-49
2023/10/13 15:35:00;;;;;;;9.57;4.00;;;18.40;99.90;;;;;;5072593;28;20062;-51
2023/10/13 15:37:27;;;;;;;22.08;4.40;;;18.40;99.90;;;;;;5072947;28;20567;-50
2023/10/13 15:39:52;;;;;;;12.90;4.82;;;18.40;99.90;;;;;;5073080;28;20393;-46
2023/10/13 15:42:20;;;;;;;15.95;5.45;;;18.40;99.90;;;;;;5071828;28;20028;-47
2023/10/13 15:44:46;;;;;;;16.77;5.07;;;18.30;99.90;;;;;;5054621;28;20115;-50
2023/10/13 15:47:12;;;;;;;15.68;5.03;;;18.30;99.90;;;;;;5072359;28;20056;-41
2023/10/13 15:49:41;;;;;;;16.52;5.57;;;18.30;99.90;;;;;;5072513;28;20028;-43
2023/10/13 15:52:07;;;;;;;11.18;4.60;;;18.30;99.90;;;;;;5072223;28;20489;-47
2023/10/13 15:54:35;;;;;;;17.42;4.32;;;18.30;99.90;;;;;;5072547;28;20048;-43
2023/10/13 15:57:00;;;;;;;8.43;4.72;;;18.20;99.90;;;;;;5072138;28;20035;-44
2023/10/13 15:59:26;;;;;;;17.58;5.72;;;18.30;99.90;;;;;;5054781;28;20384;-46
2023/10/13 16:01:57;;;;;;;18.92;4.35;;;18.30;99.90;;;;;;5072055;28;20533;-44
2023/10/13 16:04:23;;;;;;;12.80;4.78;;;18.30;99.90;;;;;;5071667;28;20067;-47
2023/10/13 16:06:50;;;;;;;21.13;5.65;;;18.20;99.90;;;;;;5070680;28;20056;-46
2023/10/13 16:09:23;;;;;;;11.52;4.45;;;18.20;99.90;;;;;;5052353;28;20037;-45
2023/10/13 16:11:52;;;;;;;11.93;4.53;;;18.30;99.90;;;;;;5066262;28;20037;-51
2023/10/13 16:14:18;;;;;;;16.35;4.75;;;18.20;99.90;;;;;;5071034;28;20538;-45
2023/10/13 16:16:49;;;;;;;21.15;5.05;;;18.20;99.90;;;;;;5071446;28;20063;-46
2023/10/13 16:19:21;;;;;;;19.25;4.78;;;18.20;99.90;;;;;;5055334;28;20504;-48
2023/10/13 16:21:47;;;;;;;7.30;4.97;;;18.20;99.90;;;;;;5044207;28;20028;-43
2023/10/13 16:24:17;;;;;;;9.98;3.83;;;18.30;99.90;;;;;;5071156;28;20028;-47
2023/10/13 16:26:49;;;;;;;16.65;5.35;;;18.30;99.90;;;;;;5053319;28;20021;-45
2023/10/13 16:29:15;;;;;;;14.07;4.68;;;18.20;99.90;;;;;;5069047;28;20481;-43
2023/10/13 16:31:45;;;;;;;16.25;4.95;;;18.30;99.90;;;;;;5054677;28;20021;-45
2023/10/13 16:34:12;;;;;;;13.07;5.28;;;18.20;99.90;;;;;;5075569;28;20099;-44
2023/10/13 16:36:37;;;;;;;14.57;4.47;;;18.20;99.90;;;;;;5075366;28;20037;-46
2023/10/13 16:39:03;;;;;;;15.30;4.55;;;18.20;99.90;;;;;;5074452;28;20029;-43
2023/10/13 16:41:29;;;;;;;18.23;4.43;;;18.20;99.90;;;;;;5075273;28;20043;-46
2023/10/13 16:43:54;;;;;;;10.23;4.68;;;18.20;99.90;;;;;;5072985;28;20028;-43
2023/10/13 16:46:20;;;;;;;13.35;5.28;;;18.20;99.90;;;;;;5075295;28;20432;-46